Time;durP1;ratioP1;P1;durP2;ratioP2;P2;SDS_P1;SDS_P2;PMS_P1;PMS_P2;Temp;Humidity;BMP_temperature;BMP_pressure;BME280_temperature;BME280_humidity;BME280_pressure;Samples;Min_cycle;Max_cycle;Signal;HPM_P1;HPM_P2
2021/11/20 18:10:02;;;;;;;;;;;7.40;84.40;;;;;;5130493;27;19912;-96
2021/11/20 18:12:28;;;;;;;;;;;7.20;86.60;;;;;;5131349;28;19963;-96
2021/11/20 18:14:53;;;;;;;;;;;7.30;88.50;;;;;;5113408;28;19912;-95
2021/11/20 18:17:20;;;;;;;;;;;7.30;89.70;;;;;;5114639;28;19912;-96
2021/11/20 18:19:48;;;;;;;;;;;7.30;90.30;;;;;;5116119;28;19908;-96
2021/11/20 18:22:19;;;;;;;;;;;7.40;90.60;;;;;;5115209;28;19908;-95
2021/11/20 18:24:45;;;;;;;;;;;7.50;90.80;;;;;;5111115;28;19908;-96
2021/11/20 18:27:11;;;;;;;;;;;7.50;91.00;;;;;;5112671;28;19970;-96
2021/11/20 18:29:37;;;;;;;;;;;7.50;90.80;;;;;;5111914;28;19916;-95
2021/11/20 18:32:03;;;;;;;;;;;7.60;90.40;;;;;;5112497;28;19908;-94
2021/11/20 18:34:29;;;;;;;;;;;7.70;90.50;;;;;;5110822;28;19995;-94
2021/11/20 18:36:55;;;;;;;;;;;7.70;90.30;;;;;;5128469;28;19908;-95
2021/11/20 18:39:20;;;;;;;;;;;7.70;90.00;;;;;;5128111;28;19919;-95
2021/11/20 18:41:46;;;;;;;;;;;7.70;90.00;;;;;;5110417;28;19908;-95
2021/11/20 18:44:11;;;;;;;;;;;7.70;90.20;;;;;;5110899;28;19908;-96
2021/11/20 18:46:37;;;;;;;;;;;7.70;90.10;;;;;;5110525;28;19908;-96
2021/11/20 18:49:03;;;;;;;;;;;7.70;90.30;;;;;;5110291;28;19912;-95
2021/11/20 18:51:29;;;;;;;;;;;7.70;90.30;;;;;;5110758;28;19910;-95
2021/11/20 18:53:56;;;;;;;;;;;7.70;90.30;;;;;;5100117;28;19909;-94
2021/11/20 18:56:22;;;;;;;;;;;7.70;90.20;;;;;;5120438;28;19912;-95
2021/11/20 18:58:48;;;;;;;;;;;7.70;90.30;;;;;;5090439;28;19959;-95
2021/11/20 19:01:14;;;;;;;;;;;7.70;90.40;;;;;;5091562;28;19909;-95
2021/11/20 19:03:39;;;;;;;;;;;7.70;90.30;;;;;;5091463;28;19939;-95
2021/11/20 19:06:08;;;;;;;;;;;7.60;90.20;;;;;;5090444;28;19915;-95
2021/11/20 19:08:34;;;;;;;;;;;7.60;90.00;;;;;;5091364;28;19925;-95
2021/11/20 19:10:59;;;;;;;;;;;7.60;89.90;;;;;;5103590;28;20387;-95
2021/11/20 19:13:26;;;;;;;;;;;7.60;90.00;;;;;;5111292;28;19915;-96
2021/11/20 19:15:52;;;;;;;;;;;7.50;90.00;;;;;;5110445;28;19914;-95
2021/11/20 19:18:18;;;;;;;;;;;7.50;90.00;;;;;;5110630;28;20018;-94
2021/11/20 19:20:44;;;;;;;;;;;7.50;89.40;;;;;;5102434;28;19908;-96
2021/11/20 19:23:10;;;;;;;;;;;7.40;89.70;;;;;;5100875;28;20312;-96
2021/11/20 19:25:41;;;;;;;;;;;7.40;89.50;;;;;;5101920;28;20303;-96
2021/11/20 19:28:06;;;;;;;;;;;7.40;89.60;;;;;;5103227;28;19998;-96
2021/11/20 19:30:53;;;;;;;;;;;7.30;90.00;;;;;;5103404;28;19969;-96
2021/11/20 19:33:21;;;;;;;;;;;7.30;90.00;;;;;;5107392;28;20279;-92
2021/11/20 19:35:50;;;;;;;;;;;7.20;90.20;;;;;;5107849;28;20002;-95
2021/11/20 19:53:40;;;;;;;;;;;7.00;87.00;;;;;;5132287;27;19912;-93
2021/11/20 19:56:06;;;;;;;;;;;6.80;88.20;;;;;;5131117;28;20291;-93
2021/11/20 21:06:16;;;;;;;;;;;5.20;91.50;;;;;;5834896;22;20631;31
2021/11/20 21:08:44;;;;;;;;;;;5.30;93.10;;;;;;5044614;28;19978;-96
2021/11/20 21:11:13;;;;;;;;;;;5.40;94.00;;;;;;5044561;28;19920;-96
